Mogul Park, Mogul, Nevada Weather observations

Data are for 10 minute period ending at time listed.
 Day   Time   Solar   Ave.   Ave.  Ave.  Vector  Max.   Baro.   Total    
  of    of     Rad.   Air    Rel.  Wind   Wind   Wind  Press.  Precip.   
Year   Day            Temp.  Hum.  Speed  Dir.   Gust                    
2026   (PST)  Kw/m2    F      %     mph   deg.    mph    mb.     in.     
-------------------------------------------------------------------------
 125    0:00   0.00   43.4    88   12.2   272    18.9   99999.0    0.00 
 125    0:10   0.00   43.4    89   10.4   274    16.0   99999.0    0.00 
 125    0:20   0.00   43.8    88   11.3   275    16.0   99999.0    0.00 
 125    0:30   0.00   43.7    88   10.9   284    15.6   99999.0    0.00 
 125    0:40   0.00   43.8    87   13.0   277    17.8   99999.0    0.00 
 125    0:50   0.00   43.8    86   12.3   278    16.7   99999.0    0.00 
 125    1:00   0.00   43.8    86   11.5   273    15.3   99999.0    0.00 
 125    1:10   0.00   43.8    87   10.8   278    15.3   99999.0    0.00 
 125    1:20   0.00   43.9    88    9.0   281    12.4   99999.0    0.00 
 125    1:30   0.00   44.1    87   10.7   279    13.9   99999.0    0.00 
 125    1:40   0.00   44.3    87   10.2   277    14.6   99999.0    0.00 
 125    1:50   0.00   44.0    87    9.9   282    13.9   99999.0    0.00 
 125    2:00   0.00   43.9    88    9.4   279    14.9   99999.0    0.00 
 125    2:10   0.00   43.7    88    9.1   279    13.1   99999.0    0.00 
 125    2:20   0.00   43.5    89    8.6   273    12.8   99999.0    0.00 
 125    2:30   0.00   43.3    90    9.2   277    13.9   99999.0    0.00 
 125    2:40   0.00   43.3    90   10.5   272    16.4   99999.0    0.00 
 125    2:50   0.00   43.5    89   10.9   277    14.9   99999.0    0.00 
 125    3:00   0.00   43.9    88   10.4   282    14.9   99999.0    0.00 
 125    3:10   0.00   44.0    89    9.3   285    11.7   99999.0    0.00 
 125    3:20   0.00   44.2    88    8.5   290    11.7   99999.0    0.00 
 125    3:30   0.01   44.3    89    7.5   291    11.0   99999.0    0.00 
 125    3:40   0.01   44.4    89    6.9   278    11.0   99999.0    0.00 
 125    3:50   0.02   44.4    89    5.9   264     9.6   99999.0    0.00 
 125    4:00   0.02   44.4    88    8.4   275    12.8   99999.0    0.00 
 125    4:10   0.03   44.5    88    9.5   278    13.5   99999.0    0.00 
 125    4:20   0.03   44.5    88   10.6   273    13.9   99999.0    0.00 
 125    4:30   0.02   44.7    87   10.2   257    14.9   99999.0    0.00 
 125    4:40   0.02   44.7    88    8.0   260    12.8   99999.0    0.00 
 125    4:50   0.04   44.9    88    7.5   254    11.3   99999.0    0.00 
 125    5:00   0.05   45.2    87    7.9   258    11.0   99999.0    0.00 
 125    5:10   0.05   45.2    88    7.9   257    11.0   99999.0    0.00 
 125    5:20   0.05   45.6    87    4.9   269     7.1   99999.0    0.00 
 125    5:30   0.07   45.9    87    4.4   262     8.5   99999.0    0.00 
 125    5:40   0.09   46.3    86    6.4   264     9.6   99999.0    0.00 
 125    5:50   0.14   46.7    86    5.4   280     8.1   99999.0    0.00 
 125    6:00   0.17   47.2    85    5.7   262     8.8   99999.0    0.00 
 125    6:10   0.20   47.7    85    5.4   258     8.5   99999.0    0.00 
 125    6:20   0.21   48.2    84    5.7   261     9.2   99999.0    0.00 
 125    6:30   0.19   48.4    82    4.9   249     7.4   99999.0    0.00 
 125    6:40   0.19   48.6    82    5.1   246     7.4   99999.0    0.00 
 125    6:50   0.21   49.0    82    4.2   244     6.7   99999.0    0.00 
 125    7:00   0.24   49.5    81    4.2   252     6.7   99999.0    0.00 
 125    7:10   0.33   50.1    81    4.1   249     6.7   99999.0    0.00 
 125    7:20   0.47   50.8    80    3.8   243     6.0   99999.0    0.00 
 125    7:30   0.40   51.3    79    4.2   242     6.3   99999.0    0.00 
 125    7:40   0.40   52.2    78    2.7   224     5.3   99999.0    0.00 
 125    7:50   0.46   53.3    78    3.0   232     6.0   99999.0    0.00 
 125    8:00   0.56   54.2    74    2.1   215     5.3   99999.0    0.00 
 125    8:10   0.63   55.4    72    2.2   243     4.9   99999.0    0.00 
 125    8:20   0.50   55.1    70    3.6   232     7.1   99999.0    0.00 
 125    8:30   0.37   54.7    71    2.9   217     7.1   99999.0    0.00 
 125    8:40   0.34   55.7    69    1.9   129     3.5   99999.0    0.00 
 125    8:50   0.74   57.0    70    4.5   106     7.1   99999.0    0.00 
 125    9:00   0.80   57.7    66    5.3   116     8.5   99999.0    0.00 
 125    9:10   0.91   57.9    65    5.0   125     8.1   99999.0    0.00 
 125    9:20   0.95   58.6    64    3.8   106     7.8   99999.0    0.00 
 125    9:30   1.00   59.1    62    3.3   132    10.3   99999.0    0.00 
 125    9:40   0.84   60.6    61    5.1   106     9.9   99999.0    0.00 
 125    9:50   0.99   60.5    61    6.0    76    12.8   99999.0    0.00 
 125   10:00   1.08   60.8    61    5.4    65     9.9   99999.0    0.00 
 125   10:10   1.06   61.7    58    4.7    76     8.5   99999.0    0.00 
 125   10:20   1.04   61.8    58    4.8    53     9.9   99999.0    0.00 
 125   10:30   1.09   62.0    58    4.4    79     9.9   99999.0    0.00 
 125   10:40   1.00   63.2    52    6.0   126    12.1   99999.0    0.00 
 125   10:50   0.96   62.6    54    7.4   105    12.4   99999.0    0.00 
 125   11:00   1.00   62.9    54    4.6   172    11.7   99999.0    0.00 
 125   11:10   0.89   63.3    51    8.8   117    13.1   99999.0    0.00 
 125   11:20   0.87   64.4    50    8.2   120    16.7   99999.0    0.00 
 125   11:30   0.94   63.6    50    7.6   121    14.9   99999.0    0.00 
 125   11:40   0.72   64.1    51    5.7    94    11.3   99999.0    0.00 
 125   11:50   0.90   64.6    49    7.8   121    12.4   99999.0    0.00 
 125   12:00   0.98   65.4    47    7.1   144    16.0   99999.0    0.00 
 125   12:10   0.96   66.0    46    6.6   125    11.3   99999.0    0.00 
 125   12:20   0.54   65.0    46    7.6    97    15.3   99999.0    0.00 
 125   12:30   0.42   64.8    45    8.5    84    14.6   99999.0    0.00 
 125   12:40   0.40   64.9    45    6.2    83    12.1   99999.0    0.00 
 125   12:50   0.43   65.1    46    4.7    53     9.2   99999.0    0.00 
 125   13:00   0.17   64.7    45    4.7    72     7.8   99999.0    0.00 
 125   13:10   0.28   66.0    44    3.0    62     6.7   99999.0    0.00 
 125   13:20   0.39   66.0    43    5.0    33     9.6   99999.0    0.00 
 125   13:30   0.56   66.4    43    4.1    31     8.8   99999.0    0.00 
 125   13:40   0.54   66.9    42    4.4    18     8.1   99999.0    0.00 
 125   13:50   0.35   66.7    40    4.9    66    11.3   99999.0    0.00 
 125   14:00   0.44   66.9    41    5.6    71    11.0   99999.0    0.00 
 125   14:10   0.27   66.9    40    6.2    55    11.7   99999.0    0.00 
 125   14:20   0.54   67.5    39    4.7    70     8.8   99999.0    0.00 
 125   14:30   0.52   68.6    38    5.5    66    10.3   99999.0    0.00 
 125   14:40   0.46   68.5    38    4.7    47     9.9   99999.0    0.00 
 125   14:50   0.47   69.2    37    3.7    56     8.5   99999.0    0.00 
 125   15:00   0.25   68.4    38    4.2    59     7.4   99999.0    0.00 
 125   15:10   0.24   67.3    40    4.3    74     7.1   99999.0    0.00 
 125   15:20   0.07   66.3    41    3.6    50     7.1   99999.0    0.00 
 125   15:30   0.14   66.0    40    1.7   354     6.3   99999.0    0.00 
 125   15:40   0.17   66.8    40    1.4     6     4.2   99999.0    0.00 
 125   15:50   0.23   67.1    37    1.5   139     3.5   99999.0    0.00 
 125   16:00   0.19   67.4    38    1.6   228     4.2   99999.0    0.00 
 125   16:10   0.15   67.6    40    4.7   263     9.2   99999.0    0.00 
 125   16:20   0.11   66.8    44    7.9   255    11.0   99999.0    0.00 
 125   16:30   0.07   65.9    48    8.7   259    12.8   99999.0    0.00 
 125   16:40   0.04   64.9    50    8.5   260    12.8   99999.0    0.00 
 125   16:50   0.02   63.8    54    7.7   260     9.9   99999.0    0.00 
 125   17:00   0.01   62.9    57    6.5   256     9.6   99999.0    0.00 
 125   17:10   0.01   62.2    59    6.1   256     8.8   99999.0    0.00 
 125   17:20   0.00   61.9    60    5.9   260     8.5   99999.0    0.00 
 125   17:30   0.00   61.7    61    6.3   263     9.6   99999.0    0.00 
 125   17:40   0.00   61.2    62    7.3   277     9.6   99999.0    0.00 
 125   17:50   0.00   60.5    64    7.9   281    10.6   99999.0    0.00 
 125   18:00   0.00   60.5    63    9.3   278    12.4   99999.0    0.00 
 125   18:10   0.00   61.6    60   10.1   277    14.6   99999.0    0.00 
 125   18:20   0.00   61.5    59    8.1   273    12.4   99999.0    0.00 
 125   18:30   0.00   61.5    60    7.8   280    14.6   99999.0    0.00 
 125   18:40   0.00   61.0    60    7.4   286    11.0   99999.0    0.00 
 125   18:50   0.00   60.6    59    7.5   272    11.7   99999.0    0.00 
 125   19:00   0.00   61.3    57    8.3   269    13.5   99999.0    0.00 
 125   19:10   0.00   59.7    59    8.9   283    11.3   99999.0    0.00 
 125   19:20   0.00   58.4    63    9.0   283    12.4   99999.0    0.00 
 125   19:30   0.00   58.0    66    9.2   289    12.8   99999.0    0.00 
 125   19:40   0.00   57.2    70    9.1   289    13.1   99999.0    0.00 
 125   19:50   0.00   57.2    67    8.8   282    11.7   99999.0    0.00 
 125   20:00   0.00   57.4    64    8.7   282    13.1   99999.0    0.00 
 125   20:10   0.00   57.3    64    8.7   276    13.5   99999.0    0.00 
 125   20:20   0.00   57.1    66    8.7   276    12.1   99999.0    0.00 
 125   20:30   0.00   57.1    65    8.5   272    12.8   99999.0    0.00 
 125   20:40   0.00   56.9    65    7.8   272    11.7   99999.0    0.00 
 125   20:50   0.00   57.3    64    6.8   268    11.3   99999.0    0.00 
 125   21:00   0.00   56.7    66    5.6   267     9.2   99999.0    0.00 
 125   21:10   0.00   56.0    68    6.5   271    11.0   99999.0    0.00 
 125   21:20   0.00   55.5    69    6.2   277    12.4   99999.0    0.00 

Return to Mogul Park graphs page.


Western Regional Climate Center,wrcc@dri.edu